Time;durP1;ratioP1;P1;durP2;ratioP2;P2;SDS_P1;SDS_P2;PMS_P1;PMS_P2;Temp;Humidity;BMP_temperature;BMP_pressure;BME280_temperature;BME280_humidity;BME280_pressure;Samples;Min_cycle;Max_cycle;Signal;HPM_P1;HPM_P2
2023/02/24 00:01:07;;;;;;;;;;;;;;;7.53;100.00;96017.13;4996583;28;19958;-75
2023/02/24 00:03:36;;;;;;;;;;;;;;;7.53;100.00;96015.28;4997173;28;19966;-74
2023/02/24 00:06:08;;;;;;;;;;;;;;;7.52;100.00;96029.38;4996753;28;19958;-74
2023/02/24 00:08:34;;;;;;;;;;;;;;;7.51;100.00;96024.34;4996794;28;19951;-74
2023/02/24 00:11:07;;;;;;;;;;;;;;;7.51;100.00;96019.13;4996789;28;19968;-75
2023/02/24 00:13:34;;;;;;;;;;;;;;;7.51;100.00;96021.72;4996261;28;19952;-74
2023/02/24 00:16:01;;;;;;;;;;;;;;;7.50;100.00;96022.75;4995938;28;19971;-75
2023/02/24 00:18:27;;;;;;;;;;;;;;;7.49;100.00;96016.72;4995857;28;19944;-74
2023/02/24 00:20:56;;;;;;;;;;;;;;;7.50;100.00;96022.75;4996228;28;19958;-74
2023/02/24 00:23:22;;;;;;;;;;;;;;;7.48;100.00;96009.91;4996287;28;19958;-75
2023/02/24 00:25:48;;;;;;;;;;;;;;;7.46;100.00;96017.16;4996155;28;20044;-76
2023/02/24 00:28:14;;;;;;;;;;;;;;;7.44;100.00;96019.16;4996239;28;19948;-76
2023/02/24 00:30:40;;;;;;;;;;;;;;;7.41;100.00;96014.38;4996095;28;20315;-75
2023/02/24 00:33:06;;;;;;;;;;;;;;;7.34;100.00;96010.97;4996148;28;20405;-75
2023/02/24 00:35:32;;;;;;;;;;;;;;;7.32;100.00;96015.59;4996089;28;19952;-75
2023/02/24 00:37:58;;;;;;;;;;;;;;;7.25;100.00;96012.25;4996244;28;19956;-75
2023/02/24 00:40:25;;;;;;;;;;;;;;;7.21;100.00;96011.84;4995879;28;19955;-76
2023/02/24 00:42:52;;;;;;;;;;;;;;;7.21;100.00;96009.25;4995173;28;19965;-75
2023/02/24 00:45:18;;;;;;;;;;;;;;;7.23;100.00;96011.66;4995735;28;19968;-75
2023/02/24 00:47:44;;;;;;;;;;;;;;;7.23;100.00;96003.81;4996093;28;19995;-75
2023/02/24 00:50:12;;;;;;;;;;;;;;;7.23;100.00;96003.81;4995681;28;20001;-75
2023/02/24 00:52:38;;;;;;;;;;;;;;;7.22;100.00;95997.78;4995095;28;19965;-75
2023/02/24 00:55:12;;;;;;;;;;;;;;;7.22;100.00;95991.78;4995687;28;20400;-75
2023/02/24 00:57:39;;;;;;;;;;;;;;;7.23;100.00;95993.38;4995657;28;19959;-75
2023/02/24 01:00:11;;;;;;;;;;;;;;;7.24;100.00;95987.16;4995508;28;19954;-74
2023/02/24 01:02:37;;;;;;;;;;;;;;;7.26;100.00;95992.97;4995539;28;20409;-76
2023/02/24 01:05:03;;;;;;;;;;;;;;;7.25;100.00;95981.75;4995551;28;19972;-78
2023/02/24 01:07:29;;;;;;;;;;;;;;;7.26;100.00;95983.31;4995229;28;19963;-79
2023/02/24 01:09:56;;;;;;;;;;;;;;;7.27;100.00;95976.31;4978570;28;19957;-77
2023/02/24 01:12:37;;;;;;;;;;;;;;;7.28;100.00;95973.47;4995330;28;19966;-75
2023/02/24 01:15:04;;;;;;;;;;;;;;;7.27;100.00;95971.09;4995266;28;19941;-76
2023/02/24 01:17:30;;;;;;;;;;;;;;;7.28;100.00;95967.47;4995418;28;19950;-77
2023/02/24 01:19:59;;;;;;;;;;;;;;;7.28;100.00;95967.47;4995212;28;19957;-75
2023/02/24 01:22:25;;;;;;;;;;;;;;;7.28;100.00;95962.25;4994901;28;20305;-76
2023/02/24 01:24:51;;;;;;;;;;;;;;;7.29;100.00;95966.47;4995348;28;20007;-76
2023/02/24 01:27:18;;;;;;;;;;;;;;;7.28;100.00;95970.09;4994607;28;19956;-76
2023/02/24 01:29:47;;;;;;;;;;;;;;;7.25;100.00;95970.50;4995237;28;19944;-78
2023/02/24 01:32:15;;;;;;;;;;;;;;;7.16;100.00;95969.94;4995011;28;20332;-76
2023/02/24 01:34:41;;;;;;;;;;;;;;;7.11;100.00;95975.78;4994853;28;19951;-78
2023/02/24 01:37:07;;;;;;;;;;;;;;;7.10;100.00;95976.00;4977661;28;20317;-77
2023/02/24 01:39:34;;;;;;;;;;;;;;;7.10;100.00;95981.22;4995018;28;19963;-77
2023/02/24 01:42:02;;;;;;;;;;;;;;;7.08;100.00;95965.78;4994705;28;20362;-75
2023/02/24 01:44:31;;;;;;;;;;;;;;;7.10;100.00;95962.97;4994718;28;20341;-75
2023/02/24 01:46:59;;;;;;;;;;;;;;;7.11;100.00;95967.94;4994878;28;19956;-76
2023/02/24 01:49:28;;;;;;;;;;;;;;;7.13;100.00;95964.34;4994821;28;19951;-76
2023/02/24 01:52:00;;;;;;;;;;;;;;;7.13;100.00;95959.91;4977833;28;19942;-76
2023/02/24 01:54:34;;;;;;;;;;;;;;;7.15;100.00;95949.28;4994933;28;19945;-76
2023/02/24 01:57:00;;;;;;;;;;;;;;;7.17;100.00;95952.50;4977331;28;19948;-75
2023/02/24 01:59:29;;;;;;;;;;;;;;;7.16;100.00;95951.69;4994497;28;19971;-75
2023/02/24 02:01:57;;;;;;;;;;;;;;;7.17;100.00;95947.28;4994468;28;20311;-77
2023/02/24 02:04:28;;;;;;;;;;;;;;;7.18;100.00;95946.25;4976604;28;19964;-77
2023/02/24 02:06:54;;;;;;;;;;;;;;;7.17;100.00;95944.66;4994836;28;19957;-75
2023/02/24 02:09:20;;;;;;;;;;;;;;;7.18;100.00;95944.47;4994436;28;19951;-75
2023/02/24 02:11:48;;;;;;;;;;;;;;;7.19;100.00;95940.03;4994356;28;20292;-74
2023/02/24 02:14:18;;;;;;;;;;;;;;;7.21;100.00;95938.03;4994183;28;19961;-75
2023/02/24 02:16:56;;;;;;;;;;;;;;;7.21;100.00;95938.81;4994311;28;20041;-75
2023/02/24 02:19:36;;;;;;;;;;;;;;;7.23;100.00;95936.81;4985714;28;20039;-75
2023/02/24 02:22:08;;;;;;;;;;;;;;;7.24;100.00;95941.00;4994302;28;19950;-76
2023/02/24 02:25:14;;;;;;;;;;;;;;;7.25;100.00;95937.41;4994280;28;20337;-76
2023/02/24 02:27:44;;;;;;;;;;;;;;;7.24;100.00;95930.56;4929151;29;19955;-76
2023/02/24 02:30:12;;;;;;;;;;;;;;;7.24;100.00;95929.78;4941896;29;20530;-76
2023/02/24 02:33:05;;;;;;;;;;;;;;;7.22;100.00;95922.16;4974598;28;19955;-75
2023/02/24 02:35:35;;;;;;;;;;;;;;;7.18;100.00;95912.34;4962125;28;19952;-75
2023/02/24 02:38:24;;;;;;;;;;;;;;;7.15;100.00;95908.38;4994055;28;19947;-75
2023/02/24 02:40:58;;;;;;;;;;;;;;;7.17;100.00;95914.16;4997043;28;19982;-75
2023/02/24 02:43:24;;;;;;;;;;;;;;;7.18;100.00;95913.19;4984789;28;19958;-75
2023/02/24 02:46:13;;;;;;;;;;;;;;;7.20;100.00;95905.13;4997804;28;19969;-76
2023/02/24 02:48:46;;;;;;;;;;;;;;;7.23;100.00;95910.72;4998705;28;19957;-75
2023/02/24 02:51:15;;;;;;;;;;;;;;;7.26;100.00;95906.91;4998055;28;20434;-76
2023/02/24 02:53:45;;;;;;;;;;;;;;;7.24;100.00;95895.88;4998036;28;20289;-76
2023/02/24 02:56:14;;;;;;;;;;;;;;;7.22;100.00;95896.06;4997108;28;19953;-76
2023/02/24 02:58:44;;;;;;;;;;;;;;;7.21;100.00;95901.53;4997833;28;19965;-76
2023/02/24 03:01:11;;;;;;;;;;;;;;;7.20;100.00;95894.69;4997878;28;19959;-75
2023/02/24 03:03:38;;;;;;;;;;;;;;;7.18;100.00;95900.16;4997767;28;19946;-75
2023/02/24 03:06:08;;;;;;;;;;;;;;;7.17;100.00;95897.72;4997395;28;20453;-74
2023/02/24 03:08:36;;;;;;;;;;;;;;;7.16;100.00;95894.34;4997838;28;20322;-74
2023/02/24 03:11:04;;;;;;;;;;;;;;;7.16;100.00;95894.34;4997753;28;19945;-74
2023/02/24 03:13:32;;;;;;;;;;;;;;;7.11;100.00;95897.53;4996727;28;20422;-75
2023/02/24 03:16:00;;;;;;;;;;;;;;;7.06;100.00;95894.00;4997514;28;19951;-75
2023/02/24 03:18:28;;;;;;;;;;;;;;;7.04;100.00;95901.22;4997402;28;19950;-74
2023/02/24 03:21:21;;;;;;;;;;;;;;;7.05;100.00;95892.38;4997299;28;19959;-75
2023/02/24 03:23:51;;;;;;;;;;;;;;;7.06;100.00;95900.00;4986747;28;19963;-74
2023/02/24 03:26:20;;;;;;;;;;;;;;;7.07;100.00;95895.56;4997136;28;20318;-74
2023/02/24 03:29:06;;;;;;;;;;;;;;;7.06;100.00;95886.97;4997370;28;20334;-75
2023/02/24 03:31:39;;;;;;;;;;;;;;;7.05;100.00;95887.16;4996765;28;19948;-75
2023/02/24 03:34:09;;;;;;;;;;;;;;;7.04;100.00;95888.97;4997946;28;19968;-74
2023/02/24 03:36:35;;;;;;;;;;;;;;;7.04;100.00;95886.38;4963393;28;20401;-74
2023/02/24 03:39:01;;;;;;;;;;;;;;;7.05;100.00;95887.16;4979744;28;19955;-74
2023/02/24 03:41:30;;;;;;;;;;;;;;;7.05;100.00;95884.56;4997310;28;19966;-74
2023/02/24 03:43:57;;;;;;;;;;;;;;;7.04;100.00;95880.34;4996748;28;19954;-74
2023/02/24 03:46:23;;;;;;;;;;;;;;;7.04;100.00;95883.75;4996723;28;20315;-74
2023/02/24 03:48:52;;;;;;;;;;;;;;;7.03;100.00;95889.97;4979636;28;19966;-74
2023/02/24 03:51:19;;;;;;;;;;;;;;;7.03;100.00;95882.16;4996747;28;19951;-74
2023/02/24 03:53:57;;;;;;;;;;;;;;;7.03;100.00;95883.97;4996920;28;19953;-74
2023/02/24 03:56:39;;;;;;;;;;;;;;;7.01;100.00;95888.59;4986142;28;19945;-74
2023/02/24 03:59:14;;;;;;;;;;;;;;;6.97;100.00;95879.59;4996689;28;20391;-76
2023/02/24 04:01:40;;;;;;;;;;;;;;;6.93;100.00;95886.22;4996974;28;19949;-75
2023/02/24 04:04:12;;;;;;;;;;;;;;;6.90;100.00;95869.19;4979516;28;20410;-75
2023/02/24 04:06:45;;;;;;;;;;;;;;;6.90;100.00;95874.41;4996424;28;20414;-76
2023/02/24 04:09:11;;;;;;;;;;;;;;;6.91;100.00;95865.59;4996347;28;19942;-74
2023/02/24 04:11:36;;;;;;;;;;;;;;;6.93;100.00;95866.19;4996935;28;19991;-74
2023/02/24 04:14:08;;;;;;;;;;;;;;;6.94;100.00;95861.75;4996302;28;19961;-75
2023/02/24 04:16:39;;;;;;;;;;;;;;;6.94;100.00;95866.97;4996515;28;19940;-74
2023/02/24 04:19:12;;;;;;;;;;;;;;;6.93;100.00;95867.97;4996265;28;19954;-74
2023/02/24 04:21:41;;;;;;;;;;;;;;;6.94;100.00;95859.16;4996463;28;19961;-74
2023/02/24 04:24:13;;;;;;;;;;;;;;;6.96;100.00;95872.78;4996069;28;19957;-73
2023/02/24 04:26:41;;;;;;;;;;;;;;;6.96;100.00;95862.34;4996480;28;19951;-74
2023/02/24 04:29:08;;;;;;;;;;;;;;;6.97;100.00;95856.13;4996117;28;19955;-75
2023/02/24 04:31:34;;;;;;;;;;;;;;;6.95;100.00;95852.91;4996194;28;19958;-75
2023/02/24 04:34:00;;;;;;;;;;;;;;;6.93;100.00;95852.34;4978596;28;20427;-74
2023/02/24 04:36:26;;;;;;;;;;;;;;;6.91;100.00;95849.97;4996114;28;19961;-74
2023/02/24 04:38:53;;;;;;;;;;;;;;;6.91;100.00;95848.13;4996193;28;19947;-75
2023/02/24 04:41:21;;;;;;;;;;;;;;;6.87;100.00;95846.16;4996109;28;19983;-74
2023/02/24 04:43:49;;;;;;;;;;;;;;;6.81;100.00;95847.78;4995861;28;19958;-75
2023/02/24 04:46:16;;;;;;;;;;;;;;;6.74;100.00;95838.41;4995891;28;19974;-75
2023/02/24 04:48:42;;;;;;;;;;;;;;;6.68;100.00;95845.25;4995894;28;19951;-74
2023/02/24 04:51:08;;;;;;;;;;;;;;;6.62;100.00;95846.88;4996047;28;19943;-75
2023/02/24 04:53:35;;;;;;;;;;;;;;;6.63;100.00;95851.06;4995068;28;19973;-74
2023/02/24 04:56:07;;;;;;;;;;;;;;;6.65;100.00;95841.25;4995699;28;20407;-74
2023/02/24 04:58:34;;;;;;;;;;;;;;;6.71;100.00;95835.19;4995769;28;20506;-74
2023/02/24 05:01:07;;;;;;;;;;;;;;;6.76;100.00;95834.59;4995406;28;19940;-75
2023/02/24 05:03:34;;;;;;;;;;;;;;;6.81;100.00;95833.97;4995173;28;20321;-75
2023/02/24 05:06:00;;;;;;;;;;;;;;;6.79;100.00;95826.34;4996114;28;20057;-74
2023/02/24 05:08:27;;;;;;;;;;;;;;;6.77;100.00;95830.19;4995519;28;19949;-75
2023/02/24 05:10:55;;;;;;;;;;;;;;;6.75;100.00;95824.38;4995672;28;19953;-75
2023/02/24 05:13:26;;;;;;;;;;;;;;;6.74;100.00;95823.59;4995338;28;19976;-74
2023/02/24 05:15:56;;;;;;;;;;;;;;;6.75;100.00;95821.78;4995153;28;20315;-75
2023/02/24 05:18:22;;;;;;;;;;;;;;;6.79;100.00;95818.53;4995446;28;19947;-75
2023/02/24 05:23:44;;;;;;;;;;;;;;;6.86;100.00;95815.88;4995107;28;19953;-75
2023/02/24 05:26:14;;;;;;;;;;;;;;;6.88;100.00;95808.66;4995242;28;20441;-74
2023/02/24 05:28:41;;;;;;;;;;;;;;;6.89;100.00;95802.44;4994952;28;19943;-74
2023/02/24 05:31:07;;;;;;;;;;;;;;;6.90;100.00;95793.59;4994924;28;19951;-74
2023/02/24 05:33:33;;;;;;;;;;;;;;;6.92;100.00;95788.97;4994853;28;19987;-75
2023/02/24 05:36:05;;;;;;;;;;;;;;;6.94;100.00;95796.59;4994870;28;19958;-75
2023/02/24 05:38:31;;;;;;;;;;;;;;;6.94;100.00;95786.16;4994954;28;19954;-75
2023/02/24 05:41:03;;;;;;;;;;;;;;;6.95;100.00;95788.59;4994610;28;19977;-74
2023/02/24 05:43:30;;;;;;;;;;;;;;;6.97;100.00;95783.97;4994935;28;19946;-74
2023/02/24 05:46:01;;;;;;;;;;;;;;;6.98;100.00;95787.34;4994683;28;19987;-74
2023/02/24 05:48:27;;;;;;;;;;;;;;;6.98;100.00;95790.75;4994766;28;19973;-75
2023/02/24 05:50:53;;;;;;;;;;;;;;;6.99;100.00;95784.53;4994768;28;19997;-74
2023/02/24 05:53:22;;;;;;;;;;;;;;;6.99;100.00;95779.31;4994362;28;19949;-74
2023/02/24 05:55:48;;;;;;;;;;;;;;;7.00;100.00;95775.69;4994568;28;19954;-74
2023/02/24 05:58:14;;;;;;;;;;;;;;;7.01;100.00;95771.28;4977096;28;19961;-75
2023/02/24 06:00:44;;;;;;;;;;;;;;;7.01;100.00;95772.06;4994446;28;19955;-75
2023/02/24 06:03:16;;;;;;;;;;;;;;;7.02;100.00;95772.88;4994581;28;19958;-75
2023/02/24 06:05:42;;;;;;;;;;;;;;;7.04;100.00;95770.88;4994482;28;20436;-76
2023/02/24 06:08:10;;;;;;;;;;;;;;;7.05;100.00;95769.84;4994489;28;19945;-76
2023/02/24 06:10:39;;;;;;;;;;;;;;;7.05;100.00;95772.44;4994877;28;19954;-75
2023/02/24 06:13:05;;;;;;;;;;;;;;;7.01;100.00;95766.84;4994568;28;20316;-75
2023/02/24 06:15:31;;;;;;;;;;;;;;;7.00;100.00;95761.88;4993524;28;19957;-76
2023/02/24 06:17:59;;;;;;;;;;;;;;;6.95;100.00;95757.31;4976950;28;19957;-75
2023/02/24 06:20:26;;;;;;;;;;;;;;;6.93;100.00;95759.31;4994273;28;19947;-75
2023/02/24 06:22:56;;;;;;;;;;;;;;;6.94;100.00;95757.50;4994143;28;19950;-75
2023/02/24 06:25:24;;;;;;;;;;;;;;;6.93;100.00;95758.50;4994288;28;19975;-75
2023/02/24 06:27:54;;;;;;;;;;;;;;;6.92;100.00;95760.31;4994468;28;20286;-75
2023/02/24 06:30:21;;;;;;;;;;;;;;;6.91;100.00;95756.91;4994212;28;19952;-75
2023/02/24 06:32:48;;;;;;;;;;;;;;;6.89;100.00;95748.50;4993465;28;19951;-75
2023/02/24 06:35:14;;;;;;;;;;;;;;;6.84;100.00;95750.94;4993251;28;19952;-75
2023/02/24 06:37:40;;;;;;;;;;;;;;;6.83;100.00;95748.56;4994508;28;19959;-75
2023/02/24 06:40:15;;;;;;;;;;;;;;;6.85;100.00;95749.16;4979641;28;19954;-75
2023/02/24 06:42:48;;;;;;;;;;;;;;;6.83;100.00;95759.78;5000964;28;19979;-75
2023/02/24 06:45:15;;;;;;;;;;;;;;;6.83;100.00;95749.34;4993891;28;19980;-75
2023/02/24 06:47:41;;;;;;;;;;;;;;;6.85;100.00;95760.38;4993939;28;19950;-75
2023/02/24 06:50:11;;;;;;;;;;;;;;;6.86;100.00;95754.13;4993908;28;19958;-75
2023/02/24 06:52:37;;;;;;;;;;;;;;;6.86;100.00;95755.94;4994008;28;19943;-74
2023/02/24 06:55:03;;;;;;;;;;;;;;;6.81;100.00;95753.19;4994231;28;19954;-75
2023/02/24 06:57:33;;;;;;;;;;;;;;;6.69;100.00;95751.22;4993359;28;19952;-75
2023/02/24 07:00:12;;;;;;;;;;;;;;;6.64;100.00;95755.50;4983985;28;19950;-74
2023/02/24 07:02:41;;;;;;;;;;;;;;;6.61;100.00;95761.09;4993892;28;19958;-76
2023/02/24 07:05:13;;;;;;;;;;;;;;;6.52;100.00;95755.34;4994112;28;19964;-76
2023/02/24 07:07:44;;;;;;;;;;;;;;;6.44;100.00;95753.78;4993850;28;19953;-76
2023/02/24 07:10:12;;;;;;;;;;;;;;;6.37;100.00;95752.22;4993774;28;19954;-76
2023/02/24 07:12:40;;;;;;;;;;;;;;;6.36;100.00;95758.44;4993881;28;19963;-75
2023/02/24 07:15:08;;;;;;;;;;;;;;;6.33;100.00;95759.66;4993962;28;20320;-76
2023/02/24 07:17:35;;;;;;;;;;;;;;;6.34;100.00;95748.25;4993881;28;19945;-74
2023/02/24 07:20:10;;;;;;;;;;;;;;;6.36;100.00;95751.41;4993997;28;19952;-74
2023/02/24 07:22:36;;;;;;;;;;;;;;;6.34;100.00;95748.25;4993767;28;19940;-74
2023/02/24 07:25:03;;;;;;;;;;;;;;;6.35;100.00;95752.44;4993402;28;19951;-74
2023/02/24 07:27:29;;;;;;;;;;;;;;;6.36;100.00;95753.22;4996784;28;19965;-74
2023/02/24 07:29:55;;;;;;;;;;;;;;;6.40;100.00;95749.19;4997543;28;19949;-75
2023/02/24 07:32:21;;;;;;;;;;;;;;;6.38;100.00;95754.59;4997372;28;19962;-75
2023/02/24 07:34:47;;;;;;;;;;;;;;;6.38;100.00;95748.59;4997386;28;20464;-75
2023/02/24 07:37:13;;;;;;;;;;;;;;;6.41;100.00;95749.00;4997369;28;20348;-75
2023/02/24 07:39:41;;;;;;;;;;;;;;;6.39;100.00;95743.19;4996973;28;19948;-75
2023/02/24 07:42:08;;;;;;;;;;;;;;;6.37;100.00;95741.81;4998799;28;19981;-74
2023/02/24 07:44:34;;;;;;;;;;;;;;;6.35;100.00;95731.59;4980139;28;20417;-74
2023/02/24 07:47:06;;;;;;;;;;;;;;;6.34;100.00;95739.63;4997073;28;20001;-74
2023/02/24 07:49:32;;;;;;;;;;;;;;;6.33;100.00;95738.03;4997025;28;20444;-75
2023/02/24 07:51:58;;;;;;;;;;;;;;;6.32;100.00;95728.59;4996993;28;20056;-74
2023/02/24 07:54:28;;;;;;;;;;;;;;;6.32;100.00;95726.00;4963082;28;20313;-74
2023/02/24 07:56:55;;;;;;;;;;;;;;;6.30;100.00;95734.84;4997151;28;19947;-74
2023/02/24 07:59:26;;;;;;;;;;;;;;;6.34;100.00;95735.22;4996943;28;19961;-74
2023/02/24 08:01:54;;;;;;;;;;;;;;;6.40;100.00;95734.38;4996644;28;19955;-74
2023/02/24 08:04:22;;;;;;;;;;;;;;;6.44;100.00;95730.34;4996425;28;20419;-75
2023/02/24 08:06:54;;;;;;;;;;;;;;;6.44;100.00;95738.16;4996818;28;19965;-74
2023/02/24 08:12:16;;;;;;;;;;;;;;;6.43;100.00;95733.19;4996498;28;20402;-74
2023/02/24 08:14:49;;;;;;;;;;;;;;;6.42;100.00;95734.16;4996541;28;19955;-74
2023/02/24 08:17:18;;;;;;;;;;;;;;;6.39;100.00;95738.00;4996761;28;19951;-74
2023/02/24 08:19:48;;;;;;;;;;;;;;;6.43;100.00;95733.19;4996462;28;19948;-74
2023/02/24 08:22:23;;;;;;;;;;;;;;;6.47;100.00;95732.53;4981378;28;19999;-75
2023/02/24 08:24:59;;;;;;;;;;;;;;;6.45;100.00;95721.53;4995216;28;19963;-74
2023/02/24 08:27:29;;;;;;;;;;;;;;;6.40;100.00;95721.34;4996503;28;19963;-74
2023/02/24 08:30:01;;;;;;;;;;;;;;;6.38;100.00;95722.56;4996190;28;19942;-75
2023/02/24 08:32:42;;;;;;;;;;;;;;;6.37;100.00;95716.56;4996346;28;19946;-75
2023/02/24 08:35:14;;;;;;;;;;;;;;;6.44;100.00;95714.72;4996187;28;19945;-76
2023/02/24 08:37:45;;;;;;;;;;;;;;;6.52;100.00;95707.69;4995164;28;19950;-74
2023/02/24 08:43:14;;;;;;;;;;;;;;;6.76;100.00;95708.69;4996032;28;19954;-74
2023/02/24 08:45:44;;;;;;;;;;;;;;;6.85;100.00;95700.41;4996041;28;19969;-74
2023/02/24 08:48:17;;;;;;;;;;;;;;;6.89;100.00;95704.19;4995616;28;19953;-74
2023/02/24 08:50:44;;;;;;;;;;;;;;;6.94;100.00;95700.94;4996082;28;19952;-74
2023/02/24 08:53:14;;;;;;;;;;;;;;;6.98;100.00;95685.69;4978221;28;20322;-74
2023/02/24 08:55:41;;;;;;;;;;;;;;;6.97;100.00;95684.09;4995777;28;19954;-75
2023/02/24 08:58:09;;;;;;;;;;;;;;;6.93;100.00;95678.50;4995537;28;19952;-75
2023/02/24 09:00:47;;;;;;;;;;;;;;;6.93;100.00;95686.34;4995525;28;19957;-75
2023/02/24 09:03:26;;;;;;;;;;;;;;;6.97;100.00;95679.69;4980701;28;19950;-75
2023/02/24 09:06:03;;;;;;;;;;;;;;;7.04;100.00;95680.41;4995470;28;19963;-76
2023/02/24 09:08:32;;;;;;;;;;;;;;;7.08;100.00;95673.75;4982998;28;19951;-74
2023/02/24 09:11:06;;;;;;;;;;;;;;;7.06;100.00;95673.19;4995444;28;19958;-75
2023/02/24 09:13:41;;;;;;;;;;;;;;;7.01;100.00;95672.22;4995648;28;19957;-74
2023/02/24 09:16:15;;;;;;;;;;;;;;;6.99;100.00;95669.84;4995077;28;19947;-75
2023/02/24 09:18:41;;;;;;;;;;;;;;;6.96;100.00;95669.47;4985696;28;19949;-75
2023/02/24 09:21:43;;;;;;;;;;;;;;;6.97;100.00;95664.03;4995273;28;20314;-74
2023/02/24 09:24:06;;;;;;;;;;;;;;;7.09;100.00;95662.31;4995040;28;19949;-75
2023/02/24 09:26:41;;;;;;;;;;;;;;;7.25;100.00;95663.56;4995366;28;19960;-74
2023/02/24 09:29:32;;;;;;;;;;;;;;;7.37;100.00;95660.25;4994997;28;20410;-74
2023/02/24 09:32:03;;;;;;;;;;;;;;;7.51;100.00;95653.88;4994863;28;19952;-75
2023/02/24 09:34:42;;;;;;;;;;;;;;;7.75;100.00;95654.00;4995060;28;20410;-75
2023/02/24 09:37:23;;;;;;;;;;;;;;;7.96;100.00;95655.34;4994920;28;19947;-75
2023/02/24 09:40:38;;;;;;;;;;;;;;;8.14;100.00;95653.50;4994929;28;19958;-75
2023/02/24 09:42:45;;;;;;;;;;;;;;;8.35;100.00;95648.78;4993735;28;19975;-74
2023/02/24 09:45:33;;;;;;;;;;;;;;;8.45;100.00;95645.69;4982960;28;19953;-75
2023/02/24 09:48:09;;;;;;;;;;;;;;;8.53;100.00;95637.53;4994015;28;19948;-75
2023/02/24 09:50:59;;;;;;;;;;;;;;;8.61;100.00;95633.75;4994583;28;19944;-75
2023/02/24 09:53:28;;;;;;;;;;;;;;;8.64;100.00;95639.34;4995092;28;20451;-75
2023/02/24 09:56:02;;;;;;;;;;;;;;;8.69;100.00;95633.44;4977034;28;19944;-75
2023/02/24 09:58:37;;;;;;;;;;;;;;;8.73;100.00;95626.75;4994916;28;20321;-74
2023/02/24 10:01:22;;;;;;;;;;;;;;;8.72;100.00;95623.34;4994348;28;19942;-75
2023/02/24 10:04:08;;;;;;;;;;;;;;;8.77;100.00;95616.63;4993946;28;19945;-75
2023/02/24 10:06:42;;;;;;;;;;;;;;;8.80;100.00;95616.16;4980574;28;19960;-75
2023/02/24 10:09:33;;;;;;;;;;;;;;;8.85;100.00;95604.03;4977315;28;19950;-76
2023/02/24 10:12:05;;;;;;;;;;;;;;;8.89;100.00;95601.75;4983571;28;20029;-75
2023/02/24 10:14:52;;;;;;;;;;;;;;;8.90;100.00;95598.09;4994526;28;20312;-75
2023/02/24 10:17:22;;;;;;;;;;;;;;;8.89;100.00;95599.13;4994331;28;19956;-75
2023/02/24 10:20:12;;;;;;;;;;;;;;;8.90;100.00;95612.00;4994587;28;19948;-75
2023/02/24 10:22:39;;;;;;;;;;;;;;;8.92;100.00;95609.94;4994931;28;19948;-75
2023/02/24 10:25:20;;;;;;;;;;;;;;;8.95;100.00;95595.63;4993687;28;19946;-75
2023/02/24 10:27:51;;;;;;;;;;;;;;;8.95;100.00;95598.22;4994060;28;19968;-75
2023/02/24 10:30:39;;;;;;;;;;;;;;;8.96;100.00;95604.25;4994250;28;19953;-74
2023/02/24 10:33:24;;;;;;;;;;;;;;;8.95;100.00;95590.38;4994173;28;19959;-75
2023/02/24 10:35:52;;;;;;;;;;;;;;;8.93;100.00;95580.16;4994275;28;19951;-75
2023/02/24 10:38:18;;;;;;;;;;;;;;;8.94;100.00;95584.38;4994120;28;19966;-76
2023/02/24 10:40:55;;;;;;;;;;;;;;;8.97;100.00;95585.72;4976699;28;19954;-75
2023/02/24 10:43:28;;;;;;;;;;;;;;;8.98;100.00;95578.66;4994252;28;19963;-75
2023/02/24 10:46:04;;;;;;;;;;;;;;;8.97;100.00;95587.56;4976984;28;19971;-75
2023/02/24 10:48:37;;;;;;;;;;;;;;;8.95;100.00;95590.38;4994195;28;19948;-74
2023/02/24 10:51:30;;;;;;;;;;;;;;;8.89;100.00;95589.47;4994084;28;20420;-75
2023/02/24 10:54:21;;;;;;;;;;;;;;;8.89;100.00;95584.25;4982562;28;20442;-75
2023/02/24 10:56:59;;;;;;;;;;;;;;;8.90;100.00;95583.22;4993990;28;19955;-74
2023/02/24 11:02:05;;;;;;;;;;;;;;;8.86;100.00;95583.88;4996834;28;20047;-75
2023/02/24 11:04:43;;;;;;;;;;;;;;;8.81;100.00;95574.13;4998334;28;19948;-75
2023/02/24 11:07:23;;;;;;;;;;;;;;;8.80;100.00;95577.78;4996924;28;19989;-75
2023/02/24 11:10:09;;;;;;;;;;;;;;;8.74;100.00;95566.41;4989081;28;19951;-75
2023/02/24 11:18:27;;;;;;;;;;;;;;;8.49;100.00;95565.81;4997117;28;19954;-75
2023/02/24 11:21:04;;;;;;;;;;;;;;;8.43;100.00;95558.88;4997677;28;19952;-74
2023/02/24 11:23:34;;;;;;;;;;;;;;;8.40;100.00;95556.69;4996870;28;19971;-74
2023/02/24 11:26:20;;;;;;;;;;;;;;;8.41;100.00;95550.47;4997441;28;19957;-74
2023/02/24 11:28:49;;;;;;;;;;;;;;;8.41;100.00;95547.88;4996938;28;19948;-75
2023/02/24 11:31:29;;;;;;;;;;;;;;;8.46;100.00;95530.50;4997286;28;20320;-75
2023/02/24 11:33:58;;;;;;;;;;;;;;;8.55;100.00;95536.19;4997160;28;19953;-74
2023/02/24 11:36:24;;;;;;;;;;;;;;;8.61;100.00;95522.22;4997191;28;19954;-74
2023/02/24 11:38:56;;;;;;;;;;;;;;;8.68;100.00;95515.03;4997184;28;20476;-74
2023/02/24 11:41:25;;;;;;;;;;;;;;;8.73;100.00;95509.94;4997193;28;19975;-75
2023/02/24 11:44:05;;;;;;;;;;;;;;;8.87;100.00;95499.22;4997144;28;19958;-75
2023/02/24 11:47:00;;;;;;;;;;;;;;;8.99;100.00;95481.69;4996800;28;19965;-75
2023/02/24 11:49:35;;;;;;;;;;;;;;;9.09;100.00;95476.66;4979682;28;19958;-74
2023/02/24 11:52:03;;;;;;;;;;;;;;;9.16;100.00;95465.28;4982626;28;19944;-75
2023/02/24 11:54:42;;;;;;;;;;;;;;;9.22;100.00;95457.28;4996838;28;19957;-74
2023/02/24 11:57:21;;;;;;;;;;;;;;;9.31;100.00;95450.66;4996918;28;19952;-74
2023/02/24 11:59:50;;;;;;;;;;;;;;;9.44;100.00;95438.31;4988268;28;19952;-75
2023/02/24 12:02:19;;;;;;;;;;;;;;;9.58;100.00;95447.47;4968070;28;19947;-74
2023/02/24 12:04:57;;;;;;;;;;;;;;;9.68;100.00;95445.03;4996607;28;19952;-74
2023/02/24 12:07:26;;;;;;;;;;;;;;;9.64;97.13;95422.16;4988107;28;19964;-74
2023/02/24 12:10:01;;;;;;;;;;;;;;;9.60;99.88;95444.63;4996717;28;19952;-75
2023/02/24 12:12:36;;;;;;;;;;;;;;;9.63;100.00;95431.81;4995212;28;19952;-74
2023/02/24 12:15:09;;;;;;;;;;;;;;;9.68;99.52;95421.47;4996606;28;20317;-74
2023/02/24 12:17:56;;;;;;;;;;;;;;;9.73;99.75;95413.69;4996509;28;19945;-74
2023/02/24 12:20:28;;;;;;;;;;;;;;;9.78;99.38;95412.94;4982116;28;19961;-74
2023/02/24 12:22:56;;;;;;;;;;;;;;;9.82;99.08;95418.53;4996232;28;19945;-74
2023/02/24 12:25:27;;;;;;;;;;;;;;;9.88;99.95;95413.13;4996232;28;19952;-74
2023/02/24 12:28:23;;;;;;;;;;;;;;;9.89;98.19;95400.81;4996072;28;19967;-74
2023/02/24 12:31:07;;;;;;;;;;;;;;;9.91;98.96;95406.59;4991596;28;20424;-74
2023/02/24 12:33:53;;;;;;;;;;;;;;;9.91;99.18;95406.59;4996172;28;19959;-73
2023/02/24 12:36:38;;;;;;;;;;;;;;;9.94;98.30;95399.06;4983216;28;19946;-73
2023/02/24 12:39:06;;;;;;;;;;;;;;;9.97;95.51;95371.59;4995863;28;19948;-73
2023/02/24 12:41:38;;;;;;;;;;;;;;;9.97;97.06;95379.47;4995922;28;19967;-73
2023/02/24 12:44:17;;;;;;;;;;;;;;;10.01;98.28;95388.44;4995906;28;19962;-73
2023/02/24 12:46:44;;;;;;;;;;;;;;;10.08;98.02;95377.78;4995834;28;19966;-73
2023/02/24 12:49:29;;;;;;;;;;;;;;;10.15;98.76;95384.44;4995853;28;19964;-73
2023/02/24 12:51:58;;;;;;;;;;;;;;;10.20;97.94;95375.06;4986105;28;20331;-73
2023/02/24 12:54:37;;;;;;;;;;;;;;;10.22;94.78;95354.66;4996000;28;19947;-73
2023/02/24 12:57:09;;;;;;;;;;;;;;;10.23;95.36;95353.63;4995657;28;19954;-73
2023/02/24 12:59:40;;;;;;;;;;;;;;;10.24;95.41;95347.34;4995696;28;19954;-75
2023/02/24 13:02:06;;;;;;;;;;;;;;;10.25;94.24;95343.72;4995563;28;19955;-74
2023/02/24 13:04:38;;;;;;;;;;;;;;;10.29;94.01;95340.38;4995407;28;19947;-75
2023/02/24 13:07:08;;;;;;;;;;;;;;;10.32;93.97;95332.03;4995810;28;20332;-75
2023/02/24 13:09:40;;;;;;;;;;;;;;;10.33;92.96;95327.56;4995351;28;19966;-75
2023/02/24 13:12:23;;;;;;;;;;;;;;;10.34;93.29;95329.97;4995395;28;19956;-75
2023/02/24 13:14:49;;;;;;;;;;;;;;;10.35;94.69;95326.31;4995370;28;19960;-74
2023/02/24 13:17:20;;;;;;;;;;;;;;;10.37;92.92;95310.31;4995168;28;19957;-75
2023/02/24 13:19:47;;;;;;;;;;;;;;;10.38;93.44;95311.16;4995281;28;19959;-76
2023/02/24 13:22:14;;;;;;;;;;;;;;;10.39;93.36;95308.25;4995201;28;19951;-75
2023/02/24 13:24:41;;;;;;;;;;;;;;;10.39;93.72;95308.25;4994797;28;19951;-75
2023/02/24 13:27:16;;;;;;;;;;;;;;;10.39;92.43;95297.78;4995119;28;19968;-75